sensor_id;sensor_type;location;lat;lon;timestamp;pressure;altitude;pressure_sealevel;temperature
7882;BMP180;3986;41.884;23.466;2024-02-26T00:02:20;91585.00;;;9.50
7882;BMP180;3986;41.884;23.466;2024-02-26T00:04:48;91579.00;;;9.50
7882;BMP180;3986;41.884;23.466;2024-02-26T00:07:15;91580.00;;;9.50
7882;BMP180;3986;41.884;23.466;2024-02-26T00:09:42;91577.00;;;9.50
7882;BMP180;3986;41.884;23.466;2024-02-26T00:12:09;91573.00;;;9.60
7882;BMP180;3986;41.884;23.466;2024-02-26T00:14:36;91575.00;;;9.70
7882;BMP180;3986;41.884;23.466;2024-02-26T00:17:03;91567.00;;;9.50
7882;BMP180;3986;41.884;23.466;2024-02-26T00:19:29;91569.00;;;9.60
7882;BMP180;3986;41.884;23.466;2024-02-26T00:21:58;91560.00;;;9.40
7882;BMP180;3986;41.884;23.466;2024-02-26T00:24:25;91576.00;;;9.20
7882;BMP180;3986;41.884;23.466;2024-02-26T00:26:51;91566.00;;;9.30
7882;BMP180;3986;41.884;23.466;2024-02-26T00:29:20;91575.00;;;9.30
7882;BMP180;3986;41.884;23.466;2024-02-26T00:31:47;91559.00;;;9.40
7882;BMP180;3986;41.884;23.466;2024-02-26T00:34:13;91556.00;;;9.30
7882;BMP180;3986;41.884;23.466;2024-02-26T00:36:40;91561.00;;;9.40
7882;BMP180;3986;41.884;23.466;2024-02-26T00:39:08;91555.00;;;9.30
7882;BMP180;3986;41.884;23.466;2024-02-26T00:41:38;91558.00;;;9.10
7882;BMP180;3986;41.884;23.466;2024-02-26T00:44:06;91559.00;;;9.30
7882;BMP180;3986;41.884;23.466;2024-02-26T00:46:32;91558.00;;;9.20
7882;BMP180;3986;41.884;23.466;2024-02-26T00:48:59;91560.00;;;9.10
7882;BMP180;3986;41.884;23.466;2024-02-26T00:51:27;91556.00;;;9.20
7882;BMP180;3986;41.884;23.466;2024-02-26T00:53:54;91561.00;;;9.20
7882;BMP180;3986;41.884;23.466;2024-02-26T00:56:22;91557.00;;;9.20
7882;BMP180;3986;41.884;23.466;2024-02-26T00:58:49;91480.00;;;9.20
7882;BMP180;3986;41.884;23.466;2024-02-26T01:01:16;91561.00;;;9.30
7882;BMP180;3986;41.884;23.466;2024-02-26T01:03:43;91549.00;;;9.20
7882;BMP180;3986;41.884;23.466;2024-02-26T01:06:10;91549.00;;;9.20
7882;BMP180;3986;41.884;23.466;2024-02-26T01:08:36;91550.00;;;9.20
7882;BMP180;3986;41.884;23.466;2024-02-26T01:11:04;91552.00;;;9.10
7882;BMP180;3986;41.884;23.466;2024-02-26T01:13:32;91548.00;;;9.20
7882;BMP180;3986;41.884;23.466;2024-02-26T01:15:59;91549.00;;;9.00
7882;BMP180;3986;41.884;23.466;2024-02-26T01:18:26;91548.00;;;9.00
7882;BMP180;3986;41.884;23.466;2024-02-26T01:20:53;91549.00;;;9.10
7882;BMP180;3986;41.884;23.466;2024-02-26T01:23:20;91549.00;;;8.90
7882;BMP180;3986;41.884;23.466;2024-02-26T01:25:47;91547.00;;;9.00
7882;BMP180;3986;41.884;23.466;2024-02-26T01:28:14;91542.00;;;9.00
7882;BMP180;3986;41.884;23.466;2024-02-26T01:30:43;91538.00;;;9.00
7882;BMP180;3986;41.884;23.466;2024-02-26T01:33:09;91544.00;;;8.80
7882;BMP180;3986;41.884;23.466;2024-02-26T01:35:36;91535.00;;;8.70
7882;BMP180;3986;41.884;23.466;2024-02-26T01:38:03;91538.00;;;8.80
7882;BMP180;3986;41.884;23.466;2024-02-26T01:40:31;91534.00;;;8.70
7882;BMP180;3986;41.884;23.466;2024-02-26T01:42:59;91524.00;;;8.70
7882;BMP180;3986;41.884;23.466;2024-02-26T01:45:25;91525.00;;;8.50
7882;BMP180;3986;41.884;23.466;2024-02-26T01:47:54;91531.00;;;8.60
7882;BMP180;3986;41.884;23.466;2024-02-26T01:50:22;91505.00;;;8.50
7882;BMP180;3986;41.884;23.466;2024-02-26T01:52:50;91511.00;;;8.70
7882;BMP180;3986;41.884;23.466;2024-02-26T01:55:17;91501.00;;;8.60
7882;BMP180;3986;41.884;23.466;2024-02-26T01:57:45;91501.00;;;8.70
7882;BMP180;3986;41.884;23.466;2024-02-26T02:00:14;91503.00;;;8.60
7882;BMP180;3986;41.884;23.466;2024-02-26T02:02:43;91502.00;;;8.60
7882;BMP180;3986;41.884;23.466;2024-02-26T02:05:14;91497.00;;;8.60
7882;BMP180;3986;41.884;23.466;2024-02-26T02:07:43;91497.00;;;8.70
7882;BMP180;3986;41.884;23.466;2024-02-26T02:10:09;91495.00;;;8.60
7882;BMP180;3986;41.884;23.466;2024-02-26T02:12:37;91499.00;;;8.70
7882;BMP180;3986;41.884;23.466;2024-02-26T02:15:06;91490.00;;;8.70
7882;BMP180;3986;41.884;23.466;2024-02-26T02:17:32;91493.00;;;8.70
7882;BMP180;3986;41.884;23.466;2024-02-26T02:19:59;91492.00;;;8.70
7882;BMP180;3986;41.884;23.466;2024-02-26T02:22:28;91495.00;;;8.80
7882;BMP180;3986;41.884;23.466;2024-02-26T02:24:54;91502.00;;;8.80
7882;BMP180;3986;41.884;23.466;2024-02-26T02:27:21;91505.00;;;8.90
7882;BMP180;3986;41.884;23.466;2024-02-26T02:29:48;91505.00;;;8.70
7882;BMP180;3986;41.884;23.466;2024-02-26T02:32:16;91507.00;;;8.90
7882;BMP180;3986;41.884;23.466;2024-02-26T02:34:44;91505.00;;;8.80
7882;BMP180;3986;41.884;23.466;2024-02-26T02:37:11;91510.00;;;8.90
7882;BMP180;3986;41.884;23.466;2024-02-26T02:39:39;91505.00;;;8.90
7882;BMP180;3986;41.884;23.466;2024-02-26T02:42:08;91504.00;;;8.80
7882;BMP180;3986;41.884;23.466;2024-02-26T02:44:35;91515.00;;;9.00
7882;BMP180;3986;41.884;23.466;2024-02-26T02:47:02;91502.00;;;8.90
7882;BMP180;3986;41.884;23.466;2024-02-26T02:49:29;91509.00;;;9.00
7882;BMP180;3986;41.884;23.466;2024-02-26T02:51:55;91509.00;;;9.10
7882;BMP180;3986;41.884;23.466;2024-02-26T02:54:23;91500.00;;;8.80
7882;BMP180;3986;41.884;23.466;2024-02-26T02:56:51;91505.00;;;8.90
7882;BMP180;3986;41.884;23.466;2024-02-26T02:59:18;91513.00;;;8.90
7882;BMP180;3986;41.884;23.466;2024-02-26T03:01:44;91519.00;;;9.00
7882;BMP180;3986;41.884;23.466;2024-02-26T03:04:11;91516.00;;;9.00
7882;BMP180;3986;41.884;23.466;2024-02-26T03:06:38;91506.00;;;8.80
7882;BMP180;3986;41.884;23.466;2024-02-26T03:09:05;91519.00;;;8.60
7882;BMP180;3986;41.884;23.466;2024-02-26T03:11:32;91516.00;;;8.60
7882;BMP180;3986;41.884;23.466;2024-02-26T03:14:00;91515.00;;;8.60
7882;BMP180;3986;41.884;23.466;2024-02-26T03:16:27;91517.00;;;8.40
7882;BMP180;3986;41.884;23.466;2024-02-26T03:18:54;91512.00;;;8.20
7882;BMP180;3986;41.884;23.466;2024-02-26T03:21:21;91508.00;;;8.60
7882;BMP180;3986;41.884;23.466;2024-02-26T03:23:47;91500.00;;;8.40
7882;BMP180;3986;41.884;23.466;2024-02-26T03:26:14;91509.00;;;8.40
7882;BMP180;3986;41.884;23.466;2024-02-26T03:28:41;91512.00;;;8.50
7882;BMP180;3986;41.884;23.466;2024-02-26T03:31:09;91521.00;;;8.60
7882;BMP180;3986;41.884;23.466;2024-02-26T03:33:37;91511.00;;;8.50
7882;BMP180;3986;41.884;23.466;2024-02-26T03:36:05;91509.00;;;8.60
7882;BMP180;3986;41.884;23.466;2024-02-26T03:38:32;91518.00;;;8.60
7882;BMP180;3986;41.884;23.466;2024-02-26T03:40:59;91513.00;;;8.60
7882;BMP180;3986;41.884;23.466;2024-02-26T03:43:26;91512.00;;;8.60
7882;BMP180;3986;41.884;23.466;2024-02-26T03:45:53;91504.00;;;8.70
7882;BMP180;3986;41.884;23.466;2024-02-26T03:48:21;91503.00;;;8.70
7882;BMP180;3986;41.884;23.466;2024-02-26T03:50:48;91498.00;;;8.70
7882;BMP180;3986;41.884;23.466;2024-02-26T03:53:14;91507.00;;;8.70
7882;BMP180;3986;41.884;23.466;2024-02-26T03:55:41;91503.00;;;8.70
7882;BMP180;3986;41.884;23.466;2024-02-26T03:58:08;91502.00;;;8.60
7882;BMP180;3986;41.884;23.466;2024-02-26T04:00:35;91505.00;;;8.60
7882;BMP180;3986;41.884;23.466;2024-02-26T04:03:01;91493.00;;;8.30
7882;BMP180;3986;41.884;23.466;2024-02-26T04:05:30;91497.00;;;8.50
7882;BMP180;3986;41.884;23.466;2024-02-26T04:07:56;91502.00;;;8.70
7882;BMP180;3986;41.884;23.466;2024-02-26T04:10:23;91504.00;;;8.20
7882;BMP180;3986;41.884;23.466;2024-02-26T04:12:50;91504.00;;;8.20
7882;BMP180;3986;41.884;23.466;2024-02-26T04:15:17;91509.00;;;8.40
7882;BMP180;3986;41.884;23.466;2024-02-26T04:17:44;91508.00;;;8.50
7882;BMP180;3986;41.884;23.466;2024-02-26T04:20:14;91498.00;;;8.50
7882;BMP180;3986;41.884;23.466;2024-02-26T04:22:43;91502.00;;;8.50
7882;BMP180;3986;41.884;23.466;2024-02-26T04:25:11;91501.00;;;8.20
7882;BMP180;3986;41.884;23.466;2024-02-26T04:27:38;91504.00;;;7.90
7882;BMP180;3986;41.884;23.466;2024-02-26T04:30:05;91515.00;;;8.00
7882;BMP180;3986;41.884;23.466;2024-02-26T04:32:32;91500.00;;;8.30
7882;BMP180;3986;41.884;23.466;2024-02-26T04:34:59;91512.00;;;8.40
7882;BMP180;3986;41.884;23.466;2024-02-26T04:37:26;91504.00;;;8.60
7882;BMP180;3986;41.884;23.466;2024-02-26T04:39:58;91512.00;;;8.50
7882;BMP180;3986;41.884;23.466;2024-02-26T04:42:25;91502.00;;;8.20
7882;BMP180;3986;41.884;23.466;2024-02-26T04:44:52;91499.00;;;8.40
7882;BMP180;3986;41.884;23.466;2024-02-26T04:47:19;91504.00;;;8.50
7882;BMP180;3986;41.884;23.466;2024-02-26T04:49:47;91508.00;;;8.50
7882;BMP180;3986;41.884;23.466;2024-02-26T04:52:14;91503.00;;;8.60
7882;BMP180;3986;41.884;23.466;2024-02-26T04:54:41;91498.00;;;8.50
7882;BMP180;3986;41.884;23.466;2024-02-26T04:57:09;91504.00;;;8.50
7882;BMP180;3986;41.884;23.466;2024-02-26T04:59:35;91497.00;;;8.30
7882;BMP180;3986;41.884;23.466;2024-02-26T05:02:03;91497.00;;;8.10
7882;BMP180;3986;41.884;23.466;2024-02-26T05:04:30;91503.00;;;8.00
7882;BMP180;3986;41.884;23.466;2024-02-26T05:06:56;91500.00;;;8.10
7882;BMP180;3986;41.884;23.466;2024-02-26T05:09:23;91505.00;;;8.20
7882;BMP180;3986;41.884;23.466;2024-02-26T05:11:50;91500.00;;;8.30
7882;BMP180;3986;41.884;23.466;2024-02-26T05:14:18;91437.00;;;8.30
7882;BMP180;3986;41.884;23.466;2024-02-26T05:16:45;91506.00;;;8.30
7882;BMP180;3986;41.884;23.466;2024-02-26T05:19:12;91506.00;;;8.00
7882;BMP180;3986;41.884;23.466;2024-02-26T05:21:39;91495.00;;;8.20
7882;BMP180;3986;41.884;23.466;2024-02-26T05:24:08;91510.00;;;8.00
7882;BMP180;3986;41.884;23.466;2024-02-26T05:26:34;91508.00;;;7.90
7882;BMP180;3986;41.884;23.466;2024-02-26T05:29:01;91514.00;;;8.00
7882;BMP180;3986;41.884;23.466;2024-02-26T05:31:29;91523.00;;;8.20
7882;BMP180;3986;41.884;23.466;2024-02-26T05:33:56;91522.00;;;8.20
7882;BMP180;3986;41.884;23.466;2024-02-26T05:36:23;91511.00;;;8.30
7882;BMP180;3986;41.884;23.466;2024-02-26T05:38:51;91523.00;;;8.20
7882;BMP180;3986;41.884;23.466;2024-02-26T05:41:17;91510.00;;;8.30
7882;BMP180;3986;41.884;23.466;2024-02-26T05:43:48;91525.00;;;8.00
7882;BMP180;3986;41.884;23.466;2024-02-26T05:46:16;91520.00;;;8.10
7882;BMP180;3986;41.884;23.466;2024-02-26T05:48:44;91531.00;;;8.20
7882;BMP180;3986;41.884;23.466;2024-02-26T05:51:11;91526.00;;;8.30
7882;BMP180;3986;41.884;23.466;2024-02-26T05:53:38;91537.00;;;8.00
7882;BMP180;3986;41.884;23.466;2024-02-26T05:56:06;91534.00;;;7.90
7882;BMP180;3986;41.884;23.466;2024-02-26T05:58:33;91549.00;;;7.60
7882;BMP180;3986;41.884;23.466;2024-02-26T06:00:59;91549.00;;;7.40
7882;BMP180;3986;41.884;23.466;2024-02-26T06:03:26;91565.00;;;7.80
7882;BMP180;3986;41.884;23.466;2024-02-26T06:05:55;91562.00;;;8.20
7882;BMP180;3986;41.884;23.466;2024-02-26T06:08:21;91569.00;;;8.30
7882;BMP180;3986;41.884;23.466;2024-02-26T06:10:48;91560.00;;;8.20
7882;BMP180;3986;41.884;23.466;2024-02-26T06:13:15;91562.00;;;8.20
7882;BMP180;3986;41.884;23.466;2024-02-26T06:15:42;91555.00;;;8.40
7882;BMP180;3986;41.884;23.466;2024-02-26T06:18:08;91562.00;;;8.50
7882;BMP180;3986;41.884;23.466;2024-02-26T06:20:35;91564.00;;;8.50
7882;BMP180;3986;41.884;23.466;2024-02-26T06:23:03;91552.00;;;8.70
7882;BMP180;3986;41.884;23.466;2024-02-26T06:25:30;91551.00;;;8.70
7882;BMP180;3986;41.884;23.466;2024-02-26T06:27:57;91546.00;;;8.80
7882;BMP180;3986;41.884;23.466;2024-02-26T06:30:24;91554.00;;;8.80
7882;BMP180;3986;41.884;23.466;2024-02-26T06:32:51;91554.00;;;8.80
7882;BMP180;3986;41.884;23.466;2024-02-26T06:35:18;91555.00;;;8.70
7882;BMP180;3986;41.884;23.466;2024-02-26T06:37:45;91558.00;;;8.30
7882;BMP180;3986;41.884;23.466;2024-02-26T06:40:13;91562.00;;;8.60
7882;BMP180;3986;41.884;23.466;2024-02-26T06:42:40;91576.00;;;8.60
7882;BMP180;3986;41.884;23.466;2024-02-26T06:45:09;91564.00;;;8.70
7882;BMP180;3986;41.884;23.466;2024-02-26T06:47:36;91574.00;;;8.40
7882;BMP180;3986;41.884;23.466;2024-02-26T06:50:03;91569.00;;;8.40
7882;BMP180;3986;41.884;23.466;2024-02-26T06:52:30;91577.00;;;8.70
7882;BMP180;3986;41.884;23.466;2024-02-26T06:54:57;91572.00;;;8.70
7882;BMP180;3986;41.884;23.466;2024-02-26T06:57:25;91565.00;;;8.50
7882;BMP180;3986;41.884;23.466;2024-02-26T06:59:52;91569.00;;;8.80
7882;BMP180;3986;41.884;23.466;2024-02-26T07:02:18;91566.00;;;8.90
7882;BMP180;3986;41.884;23.466;2024-02-26T07:04:45;91564.00;;;8.90
7882;BMP180;3986;41.884;23.466;2024-02-26T07:07:12;91565.00;;;9.00
7882;BMP180;3986;41.884;23.466;2024-02-26T07:09:42;91562.00;;;8.90
7882;BMP180;3986;41.884;23.466;2024-02-26T07:12:08;91563.00;;;9.10
7882;BMP180;3986;41.884;23.466;2024-02-26T07:14:37;91562.00;;;9.20
7882;BMP180;3986;41.884;23.466;2024-02-26T07:17:04;91558.00;;;8.90
7882;BMP180;3986;41.884;23.466;2024-02-26T07:19:30;91568.00;;;9.10
7882;BMP180;3986;41.884;23.466;2024-02-26T07:21:57;91566.00;;;9.30
7882;BMP180;3986;41.884;23.466;2024-02-26T07:24:26;91564.00;;;9.50
7882;BMP180;3986;41.884;23.466;2024-02-26T07:26:53;91569.00;;;9.30
7882;BMP180;3986;41.884;23.466;2024-02-26T07:29:20;91578.00;;;9.10
7882;BMP180;3986;41.884;23.466;2024-02-26T07:31:48;91562.00;;;9.10
7882;BMP180;3986;41.884;23.466;2024-02-26T07:34:15;91572.00;;;9.20
7882;BMP180;3986;41.884;23.466;2024-02-26T07:36:42;91575.00;;;9.50
7882;BMP180;3986;41.884;23.466;2024-02-26T07:39:10;91572.00;;;9.80
7882;BMP180;3986;41.884;23.466;2024-02-26T07:41:36;91572.00;;;9.90
7882;BMP180;3986;41.884;23.466;2024-02-26T07:44:04;91576.00;;;9.00
7882;BMP180;3986;41.884;23.466;2024-02-26T07:46:31;91576.00;;;8.80
7882;BMP180;3986;41.884;23.466;2024-02-26T07:48:59;91584.00;;;8.90
7882;BMP180;3986;41.884;23.466;2024-02-26T07:51:26;91590.00;;;9.20
7882;BMP180;3986;41.884;23.466;2024-02-26T07:53:52;91572.00;;;9.20
7882;BMP180;3986;41.884;23.466;2024-02-26T07:56:19;91576.00;;;9.50
7882;BMP180;3986;41.884;23.466;2024-02-26T07:58:46;91567.00;;;9.70
7882;BMP180;3986;41.884;23.466;2024-02-26T08:01:13;91574.00;;;9.90
7882;BMP180;3986;41.884;23.466;2024-02-26T08:03:40;91573.00;;;10.20
7882;BMP180;3986;41.884;23.466;2024-02-26T08:06:09;91558.00;;;10.30
7882;BMP180;3986;41.884;23.466;2024-02-26T08:08:36;91564.00;;;10.70
7882;BMP180;3986;41.884;23.466;2024-02-26T08:11:03;91569.00;;;10.50
7882;BMP180;3986;41.884;23.466;2024-02-26T08:13:30;91572.00;;;10.80
7882;BMP180;3986;41.884;23.466;2024-02-26T08:15:57;91567.00;;;10.80
7882;BMP180;3986;41.884;23.466;2024-02-26T08:18:24;91561.00;;;11.10
7882;BMP180;3986;41.884;23.466;2024-02-26T08:20:51;91572.00;;;11.30
7882;BMP180;3986;41.884;23.466;2024-02-26T08:23:19;91572.00;;;11.30
7882;BMP180;3986;41.884;23.466;2024-02-26T08:25:46;91569.00;;;11.30
7882;BMP180;3986;41.884;23.466;2024-02-26T08:28:13;91572.00;;;11.60
7882;BMP180;3986;41.884;23.466;2024-02-26T08:30:43;91564.00;;;11.60
7882;BMP180;3986;41.884;23.466;2024-02-26T08:33:10;91567.00;;;11.30
7882;BMP180;3986;41.884;23.466;2024-02-26T08:35:37;91570.00;;;11.60
7882;BMP180;3986;41.884;23.466;2024-02-26T08:38:04;91572.00;;;11.70
7882;BMP180;3986;41.884;23.466;2024-02-26T08:40:32;91571.00;;;11.70
7882;BMP180;3986;41.884;23.466;2024-02-26T08:42:59;91568.00;;;11.80
7882;BMP180;3986;41.884;23.466;2024-02-26T08:45:25;91559.00;;;12.00
7882;BMP180;3986;41.884;23.466;2024-02-26T08:47:52;91564.00;;;12.20
7882;BMP180;3986;41.884;23.466;2024-02-26T08:50:19;91556.00;;;12.40
7882;BMP180;3986;41.884;23.466;2024-02-26T08:52:46;91548.00;;;12.20
7882;BMP180;3986;41.884;23.466;2024-02-26T08:55:15;91542.00;;;12.40
7882;BMP180;3986;41.884;23.466;2024-02-26T08:57:44;91545.00;;;12.50
7882;BMP180;3986;41.884;23.466;2024-02-26T09:00:11;91547.00;;;12.70
7882;BMP180;3986;41.884;23.466;2024-02-26T09:02:38;91541.00;;;12.60
7882;BMP180;3986;41.884;23.466;2024-02-26T09:05:05;91526.00;;;12.30
7882;BMP180;3986;41.884;23.466;2024-02-26T09:07:32;91535.00;;;12.40
7882;BMP180;3986;41.884;23.466;2024-02-26T09:09:59;91539.00;;;13.10
7882;BMP180;3986;41.884;23.466;2024-02-26T09:12:26;91533.00;;;12.50
7882;BMP180;3986;41.884;23.466;2024-02-26T09:14:54;91531.00;;;12.60
7882;BMP180;3986;41.884;23.466;2024-02-26T09:17:22;91511.00;;;12.80
7882;BMP180;3986;41.884;23.466;2024-02-26T09:19:49;91544.00;;;13.20
7882;BMP180;3986;41.884;23.466;2024-02-26T09:22:16;91533.00;;;13.00
7882;BMP180;3986;41.884;23.466;2024-02-26T09:24:43;91535.00;;;13.20
7882;BMP180;3986;41.884;23.466;2024-02-26T09:27:10;91456.00;;;13.00
7882;BMP180;3986;41.884;23.466;2024-02-26T09:29:36;91529.00;;;13.40
7882;BMP180;3986;41.884;23.466;2024-02-26T09:32:05;91536.00;;;13.90
7882;BMP180;3986;41.884;23.466;2024-02-26T09:34:32;91529.00;;;13.50
7882;BMP180;3986;41.884;23.466;2024-02-26T09:36:59;91525.00;;;13.40
7882;BMP180;3986;41.884;23.466;2024-02-26T09:39:25;91525.00;;;13.80
7882;BMP180;3986;41.884;23.466;2024-02-26T09:41:53;91531.00;;;13.70
7882;BMP180;3986;41.884;23.466;2024-02-26T09:44:20;91537.00;;;13.90
7882;BMP180;3986;41.884;23.466;2024-02-26T09:46:47;91530.00;;;14.10
7882;BMP180;3986;41.884;23.466;2024-02-26T09:49:17;91533.00;;;14.10
7882;BMP180;3986;41.884;23.466;2024-02-26T09:51:45;91523.00;;;14.40
7882;BMP180;3986;41.884;23.466;2024-02-26T09:54:14;91505.00;;;15.00
7882;BMP180;3986;41.884;23.466;2024-02-26T09:56:42;91525.00;;;16.00
7882;BMP180;3986;41.884;23.466;2024-02-26T09:59:12;91420.00;;;17.10
7882;BMP180;3986;41.884;23.466;2024-02-26T10:01:42;91534.00;;;17.10
7882;BMP180;3986;41.884;23.466;2024-02-26T10:04:09;91516.00;;;17.80
7882;BMP180;3986;41.884;23.466;2024-02-26T10:06:39;91519.00;;;16.70
7882;BMP180;3986;41.884;23.466;2024-02-26T10:09:09;91515.00;;;20.30
7882;BMP180;3986;41.884;23.466;2024-02-26T10:11:37;91511.00;;;21.70
7882;BMP180;3986;41.884;23.466;2024-02-26T10:14:04;91507.00;;;20.70
7882;BMP180;3986;41.884;23.466;2024-02-26T10:16:31;91503.00;;;18.90
7882;BMP180;3986;41.884;23.466;2024-02-26T10:18:59;91498.00;;;18.60
7882;BMP180;3986;41.884;23.466;2024-02-26T10:21:26;91495.00;;;20.50
7882;BMP180;3986;41.884;23.466;2024-02-26T10:23:54;91493.00;;;21.40
7882;BMP180;3986;41.884;23.466;2024-02-26T10:26:21;91492.00;;;21.40
7882;BMP180;3986;41.884;23.466;2024-02-26T10:28:48;91482.00;;;21.10
7882;BMP180;3986;41.884;23.466;2024-02-26T10:31:15;91481.00;;;21.20
7882;BMP180;3986;41.884;23.466;2024-02-26T10:33:43;91488.00;;;23.50
7882;BMP180;3986;41.884;23.466;2024-02-26T10:36:10;91482.00;;;21.50
7882;BMP180;3986;41.884;23.466;2024-02-26T10:38:37;91493.00;;;21.00
7882;BMP180;3986;41.884;23.466;2024-02-26T10:41:06;91473.00;;;20.00
7882;BMP180;3986;41.884;23.466;2024-02-26T10:43:33;91475.00;;;20.80
7882;BMP180;3986;41.884;23.466;2024-02-26T10:46:00;91469.00;;;19.50
7882;BMP180;3986;41.884;23.466;2024-02-26T10:48:27;91472.00;;;18.50
7882;BMP180;3986;41.884;23.466;2024-02-26T10:50:54;91467.00;;;18.20
7882;BMP180;3986;41.884;23.466;2024-02-26T10:53:23;91471.00;;;17.90
7882;BMP180;3986;41.884;23.466;2024-02-26T10:55:54;91474.00;;;17.30
7882;BMP180;3986;41.884;23.466;2024-02-26T10:58:23;91466.00;;;17.10
7882;BMP180;3986;41.884;23.466;2024-02-26T11:00:51;91457.00;;;17.30
7882;BMP180;3986;41.884;23.466;2024-02-26T11:03:19;91456.00;;;18.40
7882;BMP180;3986;41.884;23.466;2024-02-26T11:05:48;91451.00;;;18.20
7882;BMP180;3986;41.884;23.466;2024-02-26T11:08:16;91458.00;;;17.80
7882;BMP180;3986;41.884;23.466;2024-02-26T11:10:43;91453.00;;;17.40
7882;BMP180;3986;41.884;23.466;2024-02-26T11:13:12;91426.00;;;17.10
7882;BMP180;3986;41.884;23.466;2024-02-26T11:15:43;91463.00;;;17.10
7882;BMP180;3986;41.884;23.466;2024-02-26T11:18:10;91454.00;;;17.40
7882;BMP180;3986;41.884;23.466;2024-02-26T11:20:40;91453.00;;;17.30
7882;BMP180;3986;41.884;23.466;2024-02-26T11:23:08;91449.00;;;17.00
7882;BMP180;3986;41.884;23.466;2024-02-26T11:25:35;91454.00;;;16.30
7882;BMP180;3986;41.884;23.466;2024-02-26T11:28:05;91442.00;;;16.20
7882;BMP180;3986;41.884;23.466;2024-02-26T11:30:34;91458.00;;;16.10
7882;BMP180;3986;41.884;23.466;2024-02-26T11:33:06;91441.00;;;17.00
7882;BMP180;3986;41.884;23.466;2024-02-26T11:35:34;91443.00;;;17.40
7882;BMP180;3986;41.884;23.466;2024-02-26T11:38:01;91441.00;;;17.90
7882;BMP180;3986;41.884;23.466;2024-02-26T11:40:28;91362.00;;;17.10
7882;BMP180;3986;41.884;23.466;2024-02-26T11:42:55;91434.00;;;16.20
7882;BMP180;3986;41.884;23.466;2024-02-26T11:45:48;91431.00;;;16.40
7882;BMP180;3986;41.884;23.466;2024-02-26T11:48:22;91429.00;;;15.10
7882;BMP180;3986;41.884;23.466;2024-02-26T11:50:50;91444.00;;;15.00
7882;BMP180;3986;41.884;23.466;2024-02-26T11:53:22;91434.00;;;15.60
7882;BMP180;3986;41.884;23.466;2024-02-26T11:56:17;91442.00;;;15.10
7882;BMP180;3986;41.884;23.466;2024-02-26T11:58:46;91428.00;;;15.00
7882;BMP180;3986;41.884;23.466;2024-02-26T12:01:46;91429.00;;;15.80
7882;BMP180;3986;41.884;23.466;2024-02-26T12:04:18;91427.00;;;15.30
7882;BMP180;3986;41.884;23.466;2024-02-26T12:06:50;91421.00;;;14.90
7882;BMP180;3986;41.884;23.466;2024-02-26T12:09:36;91430.00;;;14.90
7882;BMP180;3986;41.884;23.466;2024-02-26T12:12:04;91404.00;;;14.50
7882;BMP180;3986;41.884;23.466;2024-02-26T12:14:34;91416.00;;;14.40
7882;BMP180;3986;41.884;23.466;2024-02-26T12:17:01;91418.00;;;13.90
7882;BMP180;3986;41.884;23.466;2024-02-26T12:19:34;91404.00;;;14.20
7882;BMP180;3986;41.884;23.466;2024-02-26T12:22:01;91415.00;;;14.20
7882;BMP180;3986;41.884;23.466;2024-02-26T12:24:28;91419.00;;;14.30
7882;BMP180;3986;41.884;23.466;2024-02-26T12:26:54;91424.00;;;14.60
7882;BMP180;3986;41.884;23.466;2024-02-26T12:29:21;91418.00;;;14.60
7882;BMP180;3986;41.884;23.466;2024-02-26T12:31:48;91422.00;;;14.50
7882;BMP180;3986;41.884;23.466;2024-02-26T12:34:15;91431.00;;;15.00
7882;BMP180;3986;41.884;23.466;2024-02-26T12:36:44;91419.00;;;14.70
7882;BMP180;3986;41.884;23.466;2024-02-26T12:39:11;91418.00;;;14.80
7882;BMP180;3986;41.884;23.466;2024-02-26T12:41:38;91413.00;;;14.30
7882;BMP180;3986;41.884;23.466;2024-02-26T12:44:06;91426.00;;;13.90
7882;BMP180;3986;41.884;23.466;2024-02-26T12:46:34;91415.00;;;14.00
7882;BMP180;3986;41.884;23.466;2024-02-26T12:49:00;91413.00;;;14.30
7882;BMP180;3986;41.884;23.466;2024-02-26T12:51:27;91426.00;;;14.80
7882;BMP180;3986;41.884;23.466;2024-02-26T12:53:56;91407.00;;;14.20
7882;BMP180;3986;41.884;23.466;2024-02-26T12:56:24;91414.00;;;14.00
7882;BMP180;3986;41.884;23.466;2024-02-26T12:58:53;91407.00;;;14.10
7882;BMP180;3986;41.884;23.466;2024-02-26T13:01:23;91416.00;;;13.90
7882;BMP180;3986;41.884;23.466;2024-02-26T13:03:51;91410.00;;;13.90
7882;BMP180;3986;41.884;23.466;2024-02-26T13:06:19;91405.00;;;13.90
7882;BMP180;3986;41.884;23.466;2024-02-26T13:08:47;91421.00;;;14.20
7882;BMP180;3986;41.884;23.466;2024-02-26T13:11:15;91417.00;;;14.30
7882;BMP180;3986;41.884;23.466;2024-02-26T13:13:42;91414.00;;;13.80
7882;BMP180;3986;41.884;23.466;2024-02-26T13:16:10;91417.00;;;14.30
7882;BMP180;3986;41.884;23.466;2024-02-26T13:18:40;91425.00;;;14.50
7882;BMP180;3986;41.884;23.466;2024-02-26T13:21:08;91429.00;;;14.30
7882;BMP180;3986;41.884;23.466;2024-02-26T13:23:35;91437.00;;;14.40
7882;BMP180;3986;41.884;23.466;2024-02-26T13:26:02;91437.00;;;14.00
7882;BMP180;3986;41.884;23.466;2024-02-26T13:28:30;91430.00;;;13.70
7882;BMP180;3986;41.884;23.466;2024-02-26T13:30:58;91434.00;;;13.70
7882;BMP180;3986;41.884;23.466;2024-02-26T13:33:27;91437.00;;;13.60
7882;BMP180;3986;41.884;23.466;2024-02-26T13:35:55;91443.00;;;13.60
7882;BMP180;3986;41.884;23.466;2024-02-26T13:38:22;91456.00;;;13.60
7882;BMP180;3986;41.884;23.466;2024-02-26T13:40:50;91448.00;;;13.30
7882;BMP180;3986;41.884;23.466;2024-02-26T13:43:17;91443.00;;;13.60
7882;BMP180;3986;41.884;23.466;2024-02-26T13:45:46;91443.00;;;13.50
7882;BMP180;3986;41.884;23.466;2024-02-26T13:48:13;91439.00;;;13.30
7882;BMP180;3986;41.884;23.466;2024-02-26T13:50:41;91443.00;;;13.30
7882;BMP180;3986;41.884;23.466;2024-02-26T13:53:11;91433.00;;;13.10
7882;BMP180;3986;41.884;23.466;2024-02-26T13:55:39;91449.00;;;13.20
7882;BMP180;3986;41.884;23.466;2024-02-26T13:58:08;91444.00;;;13.30
7882;BMP180;3986;41.884;23.466;2024-02-26T14:00:37;91447.00;;;13.20
7882;BMP180;3986;41.884;23.466;2024-02-26T14:03:05;91449.00;;;13.60
7882;BMP180;3986;41.884;23.466;2024-02-26T14:05:32;91445.00;;;13.60
7882;BMP180;3986;41.884;23.466;2024-02-26T14:07:59;91445.00;;;13.50
7882;BMP180;3986;41.884;23.466;2024-02-26T14:10:26;91440.00;;;13.50
7882;BMP180;3986;41.884;23.466;2024-02-26T14:12:52;91452.00;;;13.70
7882;BMP180;3986;41.884;23.466;2024-02-26T14:15:19;91452.00;;;13.70
7882;BMP180;3986;41.884;23.466;2024-02-26T14:17:46;91443.00;;;13.50
7882;BMP180;3986;41.884;23.466;2024-02-26T14:20:20;91443.00;;;13.30
7882;BMP180;3986;41.884;23.466;2024-02-26T14:22:47;91438.00;;;13.50
7882;BMP180;3986;41.884;23.466;2024-02-26T14:25:14;91447.00;;;13.40
7882;BMP180;3986;41.884;23.466;2024-02-26T14:27:41;91453.00;;;13.30
7882;BMP180;3986;41.884;23.466;2024-02-26T14:30:08;91448.00;;;13.30
7882;BMP180;3986;41.884;23.466;2024-02-26T14:32:35;91453.00;;;12.90